Orlando, Florida
Current Conditions -  °F | °C
As of 8:53 PM on Monday 20 Oct 2014 (Local Time) from KORL Reporting Station
Clear Clear  
Wind Chill: 76°   Ceiling: Unl
Heat Index: 76°   Visibility: 10mi
Dew Point: 69°   Wind: 5mph
Humidity: 79%   Direction: 80°E
Pressure: 29.98"   Gusts: NA
Location:  28.54°N, 81.38°W
Report Text: KORL 210053Z AUTO 08004KT 10SM CLR 24/21 A2998 RMK AO2 SLP155 T02440206
Loading
Personal Weather Stations






























Interactive Weather Map
Tropical Storm Tracking
New forecast layout! Learn more

10-Day Weather Forecast

Advertisements
Track Severe Weather on mobile